createdAt,value
2023-05-09T00:00:48.212Z,95.50
2023-05-09T00:03:16.255Z,95.60
2023-05-09T00:05:44.364Z,95.90
2023-05-09T00:08:12.400Z,95.80
2023-05-09T00:10:40.457Z,95.60
2023-05-09T00:13:08.478Z,96.50
2023-05-09T00:15:37.836Z,96.30
2023-05-09T00:18:05.962Z,96.40
2023-05-09T00:20:35.056Z,96.80
2023-05-09T00:23:02.979Z,96.90
2023-05-09T00:25:31.030Z,96.80
2023-05-09T00:27:58.967Z,97.10
2023-05-09T00:30:26.886Z,97.80
2023-05-09T00:32:56.294Z,98.00
2023-05-09T00:35:24.398Z,97.50
2023-05-09T00:37:52.365Z,98.10
2023-05-09T00:40:20.401Z,98.20
2023-05-09T00:42:48.310Z,98.40
2023-05-09T00:45:16.346Z,98.80
2023-05-09T00:47:44.472Z,99.50
2023-05-09T00:50:14.396Z,99.20
2023-05-09T00:52:43.005Z,99.60
2023-05-09T00:55:11.794Z,99.30
2023-05-09T00:57:40.272Z,99.90
2023-05-09T01:00:13.194Z,99.40
2023-05-09T01:02:42.060Z,99.90
2023-05-09T01:05:10.772Z,99.90
2023-05-09T01:07:47.868Z,99.90
2023-05-09T01:10:24.246Z,99.90
2023-05-09T01:12:58.347Z,99.90
2023-05-09T01:15:32.824Z,99.90
2023-05-09T01:18:12.836Z,99.90
2023-05-09T01:20:45.992Z,99.90
2023-05-09T01:23:44.035Z,99.90
2023-05-09T01:26:17.587Z,99.90
2023-05-09T01:29:06.771Z,99.90
2023-05-09T01:31:38.286Z,99.90
2023-05-09T01:34:07.657Z,99.90
2023-05-09T01:36:38.967Z,99.90
2023-05-09T01:39:07.511Z,99.70
2023-05-09T01:41:38.652Z,99.90
2023-05-09T01:44:10.824Z,99.70
2023-05-09T01:46:40.895Z,99.90
2023-05-09T01:49:09.940Z,99.70
2023-05-09T01:51:38.498Z,99.80
2023-05-09T01:54:07.668Z,99.50
2023-05-09T01:56:37.532Z,99.90
2023-05-09T01:59:07.745Z,99.90
2023-05-09T02:01:36.982Z,99.90
2023-05-09T02:04:07.203Z,99.90
2023-05-09T02:06:37.204Z,99.90
2023-05-09T02:09:05.817Z,99.90
2023-05-09T02:11:33.834Z,99.90
2023-05-09T02:14:01.817Z,99.90
2023-05-09T02:16:30.263Z,99.90
2023-05-09T02:18:59.076Z,99.90
2023-05-09T02:21:29.263Z,99.90
2023-05-09T02:23:57.439Z,99.90
2023-05-09T02:26:26.315Z,99.90
2023-05-09T02:28:55.915Z,99.90
2023-05-09T02:31:26.584Z,99.90
2023-05-09T02:33:55.834Z,99.90
2023-05-09T02:36:24.409Z,99.90
2023-05-09T02:38:54.360Z,99.90
2023-05-09T02:41:22.333Z,99.90
2023-05-09T02:43:50.416Z,99.90
2023-05-09T02:46:18.436Z,99.90
2023-05-09T02:48:46.455Z,99.90
2023-05-09T02:51:14.468Z,99.90
2023-05-09T02:53:42.382Z,99.90
2023-05-09T02:56:11.709Z,99.90
2023-05-09T02:58:39.697Z,99.90
2023-05-09T03:01:07.701Z,99.90
2023-05-09T03:03:35.831Z,99.90
2023-05-09T03:06:03.804Z,99.90
2023-05-09T03:08:31.925Z,99.90
2023-05-09T03:10:59.818Z,99.90
2023-05-09T03:13:29.060Z,99.90
2023-05-09T03:15:56.984Z,99.90
2023-05-09T03:18:25.110Z,99.90
2023-05-09T03:20:53.083Z,99.90
2023-05-09T03:23:21.022Z,99.90
2023-05-09T03:25:48.954Z,99.90
2023-05-09T03:28:16.852Z,99.90
2023-05-09T03:30:46.134Z,99.90
2023-05-09T03:33:14.138Z,99.90
2023-05-09T03:35:42.183Z,99.90
2023-05-09T03:38:10.397Z,99.90
2023-05-09T03:40:38.737Z,99.90
2023-05-09T03:43:06.755Z,99.90
2023-05-09T03:45:35.864Z,99.90
2023-05-09T03:48:08.632Z,99.90
2023-05-09T03:50:36.829Z,99.90
2023-05-09T03:53:05.498Z,99.90
2023-05-09T03:55:33.440Z,99.90
2023-05-09T03:58:01.453Z,99.90
2023-05-09T04:00:29.424Z,99.90
2023-05-09T04:02:57.640Z,99.90
2023-05-09T04:05:27.921Z,99.90
2023-05-09T04:07:55.997Z,99.90
2023-05-09T04:10:25.442Z,99.90
2023-05-09T04:12:53.379Z,99.90
2023-05-09T04:15:21.395Z,99.90
2023-05-09T04:17:49.471Z,99.90
2023-05-09T04:20:17.565Z,99.90
2023-05-09T04:22:47.327Z,99.90
2023-05-09T04:25:16.243Z,99.90
2023-05-09T04:27:44.310Z,99.90
2023-05-09T04:30:13.112Z,99.90
2023-05-09T04:32:45.734Z,99.90
2023-05-09T04:35:14.267Z,99.90
2023-05-09T04:37:42.837Z,99.90
2023-05-09T04:40:13.284Z,99.90
2023-05-09T04:42:41.366Z,99.90
2023-05-09T04:45:11.714Z,99.90
2023-05-09T04:47:39.753Z,99.90
2023-05-09T04:50:09.165Z,99.90
2023-05-09T04:52:37.282Z,99.90
2023-05-09T04:55:05.519Z,99.90
2023-05-09T04:57:37.535Z,99.90
2023-05-09T05:00:07.611Z,99.90
2023-05-09T05:02:35.562Z,99.90
2023-05-09T05:05:11.693Z,99.70
2023-05-09T05:07:40.730Z,99.20
2023-05-09T05:10:09.763Z,98.30
2023-05-09T05:12:39.071Z,97.90
2023-05-09T05:15:07.959Z,96.90
2023-05-09T05:17:35.979Z,93.80
2023-05-09T05:20:06.675Z,92.40
2023-05-09T05:22:34.705Z,90.70
2023-05-09T05:25:03.509Z,91.10
2023-05-09T05:27:31.462Z,90.00
2023-05-09T05:30:01.112Z,90.40
2023-05-09T05:32:29.331Z,90.40
2023-05-09T05:34:57.527Z,91.10
2023-05-09T05:37:25.521Z,90.90
2023-05-09T05:39:53.392Z,90.30
2023-05-09T05:42:21.924Z,88.70
2023-05-09T05:44:49.914Z,87.80
2023-05-09T05:47:19.219Z,86.70
2023-05-09T05:49:47.642Z,84.60
2023-05-09T05:52:15.586Z,84.10
2023-05-09T05:54:43.568Z,83.70
2023-05-09T05:57:11.562Z,86.00
2023-05-09T05:59:39.439Z,83.80
2023-05-09T06:02:07.527Z,84.80
2023-05-09T06:04:36.789Z,83.40
2023-05-09T06:07:04.802Z,81.00
2023-05-09T06:09:32.817Z,83.90
2023-05-09T06:12:00.805Z,82.90
2023-05-09T06:14:28.729Z,82.00
2023-05-09T06:16:56.670Z,81.70
2023-05-09T06:19:24.788Z,81.50
2023-05-09T06:21:54.125Z,79.30
2023-05-09T06:24:32.081Z,78.60
2023-05-09T06:27:04.504Z,78.60
2023-05-09T06:29:32.512Z,79.70
2023-05-09T06:32:00.744Z,78.60
2023-05-09T06:34:28.721Z,75.90
2023-05-09T06:36:58.067Z,76.60
2023-05-09T06:39:26.054Z,77.10
2023-05-09T06:41:54.003Z,76.90
2023-05-09T06:44:21.949Z,75.80
2023-05-09T06:46:49.965Z,75.40
2023-05-09T06:49:17.903Z,73.20
2023-05-09T06:51:45.890Z,72.70
2023-05-09T06:54:15.121Z,72.80
2023-05-09T06:56:43.192Z,72.50
2023-05-09T06:59:13.321Z,71.40
2023-05-09T07:01:41.584Z,70.90
2023-05-09T07:04:09.593Z,69.70
2023-05-09T07:06:37.611Z,73.20
2023-05-09T07:09:05.533Z,69.70
2023-05-09T07:11:37.230Z,68.10
2023-05-09T07:14:05.550Z,72.20
2023-05-09T07:16:35.803Z,71.50
2023-05-09T07:19:05.244Z,69.40
2023-05-09T07:21:34.407Z,68.80
2023-05-09T07:24:02.552Z,68.40
2023-05-09T07:26:30.521Z,69.30
2023-05-09T07:28:59.858Z,68.30
2023-05-09T07:31:27.888Z,67.20
2023-05-09T07:33:56.010Z,69.10
2023-05-09T07:36:24.226Z,66.30
2023-05-09T07:38:53.584Z,67.10
2023-05-09T07:41:22.426Z,65.60
2023-05-09T07:43:50.426Z,65.20
2023-05-09T07:46:20.178Z,66.70
2023-05-09T07:48:48.422Z,65.90
2023-05-09T07:51:16.349Z,67.40
2023-05-09T07:53:44.269Z,65.60
2023-05-09T07:56:13.422Z,66.00
2023-05-09T07:58:41.372Z,65.60
2023-05-09T08:01:09.268Z,63.90
2023-05-09T08:03:38.675Z,63.40
2023-05-09T08:06:06.734Z,63.30
2023-05-09T08:08:35.545Z,66.20
2023-05-09T08:11:06.337Z,65.00
2023-05-09T08:13:34.445Z,62.80
2023-05-09T08:16:02.541Z,63.80
2023-05-09T08:18:30.874Z,63.30
2023-05-09T08:21:01.016Z,62.00
2023-05-09T08:23:30.315Z,62.00
2023-05-09T08:25:59.170Z,60.70
2023-05-09T08:28:28.799Z,61.20
2023-05-09T08:30:57.858Z,60.80
2023-05-09T08:33:25.960Z,64.70
2023-05-09T08:35:54.628Z,65.00
2023-05-09T08:38:24.805Z,64.80
2023-05-09T08:40:52.884Z,61.40
2023-05-09T08:43:22.430Z,61.50
2023-05-09T08:45:53.378Z,59.40
2023-05-09T08:48:23.788Z,58.70
2023-05-09T08:50:52.357Z,59.50
2023-05-09T08:53:23.079Z,59.20
2023-05-09T08:55:52.155Z,57.30
2023-05-09T08:58:22.776Z,57.30
2023-05-09T09:00:51.541Z,57.10
2023-05-09T09:03:19.890Z,56.30
2023-05-09T09:05:54.461Z,55.90
2023-05-09T09:08:24.194Z,56.00
2023-05-09T09:10:52.397Z,58.20
2023-05-09T09:13:21.991Z,57.80
2023-05-09T09:15:51.837Z,54.70
2023-05-09T09:18:24.737Z,53.30
2023-05-09T09:20:57.832Z,54.20
2023-05-09T09:23:31.426Z,54.40
2023-05-09T09:26:00.241Z,53.60
2023-05-09T09:28:28.740Z,54.70
2023-05-09T09:30:56.673Z,52.60
2023-05-09T09:33:28.187Z,51.60
2023-05-09T09:35:59.311Z,54.50
2023-05-09T09:38:27.484Z,53.60
2023-05-09T09:40:57.331Z,52.70
2023-05-09T09:43:29.270Z,52.40
2023-05-09T09:45:58.302Z,53.20
2023-05-09T09:48:26.857Z,53.10
2023-05-09T09:50:56.951Z,53.80
2023-05-09T09:53:30.185Z,52.10
2023-05-09T09:55:59.696Z,53.00
2023-05-09T09:58:27.979Z,52.50
2023-05-09T10:01:07.451Z,51.50
2023-05-09T10:03:39.565Z,50.10
2023-05-09T10:06:12.991Z,51.80
2023-05-09T10:08:41.873Z,51.80
2023-05-09T10:11:11.791Z,53.40
2023-05-09T10:13:40.529Z,52.30
2023-05-09T10:16:10.646Z,54.30
2023-05-09T10:18:41.178Z,54.30
2023-05-09T10:21:10.629Z,53.80
2023-05-09T10:23:39.430Z,53.40
2023-05-09T10:26:17.364Z,52.10
2023-05-09T10:28:48.945Z,51.70
2023-05-09T10:31:23.587Z,50.40
2023-05-09T10:33:52.494Z,51.30
2023-05-09T10:36:22.280Z,50.80
2023-05-09T10:38:51.252Z,52.40
2023-05-09T10:41:22.806Z,50.40
2023-05-09T10:43:51.145Z,49.60
2023-05-09T10:46:19.618Z,51.30
2023-05-09T10:48:49.888Z,50.80
2023-05-09T10:51:18.708Z,52.80
2023-05-09T10:53:48.680Z,51.70
2023-05-09T10:56:31.849Z,53.20
2023-05-09T10:59:00.448Z,51.10
2023-05-09T11:01:34.919Z,50.20
2023-05-09T11:04:09.675Z,51.60
2023-05-09T11:06:49.178Z,53.40
2023-05-09T11:09:33.211Z,52.50
2023-05-09T11:12:13.426Z,52.40
2023-05-09T11:14:45.972Z,50.80
2023-05-09T11:17:15.201Z,50.70
2023-05-09T11:20:01.118Z,51.00
2023-05-09T11:22:30.859Z,51.70
2023-05-09T11:25:05.723Z,51.50
2023-05-09T11:27:43.715Z,49.80
2023-05-09T11:30:15.505Z,52.90
2023-05-09T11:32:46.682Z,51.60
2023-05-09T11:35:16.417Z,50.80
2023-05-09T11:37:50.185Z,50.70
2023-05-09T11:40:19.478Z,50.30
2023-05-09T11:42:50.487Z,50.30
2023-05-09T11:45:18.861Z,50.70
2023-05-09T11:47:47.463Z,50.90
2023-05-09T11:50:17.499Z,51.20
2023-05-09T11:52:45.379Z,49.80
2023-05-09T11:55:14.903Z,49.80
2023-05-09T11:57:45.155Z,50.50
2023-05-09T12:00:17.403Z,51.10
2023-05-09T12:02:46.860Z,49.50
2023-05-09T12:05:16.637Z,50.90
2023-05-09T12:07:45.803Z,49.30
2023-05-09T12:10:16.118Z,51.70
2023-05-09T12:12:45.727Z,49.60
2023-05-09T12:15:16.303Z,48.80
2023-05-09T12:17:46.792Z,48.50
2023-05-09T12:20:15.336Z,48.00
2023-05-09T12:22:45.007Z,50.80
2023-05-09T12:25:13.501Z,47.50
2023-05-09T12:27:42.928Z,47.60
2023-05-09T12:30:14.225Z,50.40
2023-05-09T12:32:43.972Z,48.90
2023-05-09T12:35:12.147Z,48.80
2023-05-09T12:37:40.154Z,50.30
2023-05-09T12:40:12.992Z,46.10
2023-05-09T12:42:44.360Z,46.40
2023-05-09T12:45:12.995Z,46.40
2023-05-09T12:47:41.957Z,47.90
2023-05-09T12:50:13.438Z,49.80
2023-05-09T12:52:54.552Z,49.10
2023-05-09T12:55:31.687Z,46.80
2023-05-09T12:58:01.583Z,45.00
2023-05-09T13:00:29.956Z,45.90
2023-05-09T13:02:58.078Z,45.30
2023-05-09T13:05:27.478Z,45.10
2023-05-09T13:07:58.324Z,47.20
2023-05-09T13:10:28.575Z,48.20
2023-05-09T13:12:57.512Z,47.90
2023-05-09T13:15:26.866Z,48.60
2023-05-09T13:17:55.520Z,48.10
2023-05-09T13:20:23.722Z,47.00
2023-05-09T13:22:53.073Z,49.10
2023-05-09T13:25:21.215Z,47.60
2023-05-09T13:27:49.212Z,45.20
2023-05-09T13:30:18.164Z,46.30
2023-05-09T13:32:47.431Z,45.80
2023-05-09T13:35:15.744Z,46.70
2023-05-09T13:37:43.970Z,47.00
2023-05-09T13:40:14.475Z,46.40
2023-05-09T13:42:42.616Z,46.50
2023-05-09T13:45:11.544Z,48.30
2023-05-09T13:47:39.642Z,46.70
2023-05-09T13:50:09.103Z,49.50
2023-05-09T13:52:37.005Z,47.00
2023-05-09T13:55:05.471Z,45.40
2023-05-09T13:57:35.045Z,45.60
2023-05-09T14:00:03.435Z,48.70
2023-05-09T14:02:31.485Z,47.00
2023-05-09T14:04:59.930Z,46.90
2023-05-09T14:07:28.285Z,46.40
2023-05-09T14:10:10.548Z,46.50
2023-05-09T14:12:44.611Z,47.80
2023-05-09T14:15:12.748Z,47.60
2023-05-09T14:17:41.150Z,43.10
2023-05-09T14:20:10.647Z,45.80
2023-05-09T14:22:38.623Z,46.40
2023-05-09T14:25:07.762Z,47.00
2023-05-09T14:27:37.001Z,47.00
2023-05-09T14:30:07.499Z,46.10
2023-05-09T14:32:35.638Z,46.70
2023-05-09T14:35:03.714Z,47.50
2023-05-09T14:37:33.903Z,46.90
2023-05-09T14:40:05.448Z,46.00
2023-05-09T14:42:33.780Z,46.90
2023-05-09T14:45:01.812Z,47.20
2023-05-09T14:47:31.202Z,47.50
2023-05-09T14:49:59.698Z,47.20
2023-05-09T14:52:28.796Z,45.30
2023-05-09T14:54:56.720Z,46.60
2023-05-09T14:57:24.835Z,45.30
2023-05-09T14:59:52.974Z,46.60
2023-05-09T15:02:21.011Z,47.50
2023-05-09T15:04:50.412Z,48.10
2023-05-09T15:07:18.548Z,48.10
2023-05-09T15:09:46.572Z,48.90
2023-05-09T15:12:14.526Z,48.70
2023-05-09T15:14:42.564Z,47.80
2023-05-09T15:17:10.573Z,47.30
2023-05-09T15:19:38.821Z,48.00
2023-05-09T15:22:09.108Z,49.40
2023-05-09T15:24:37.097Z,48.70
2023-05-09T15:27:05.140Z,48.00
2023-05-09T15:29:33.084Z,47.90
2023-05-09T15:32:01.205Z,49.70
2023-05-09T15:34:29.177Z,49.40
2023-05-09T15:36:57.128Z,48.20
2023-05-09T15:39:27.257Z,48.20
2023-05-09T15:41:55.194Z,48.90
2023-05-09T15:44:23.190Z,48.40
2023-05-09T15:46:51.107Z,49.10
2023-05-09T15:49:19.224Z,50.30
2023-05-09T15:51:47.312Z,50.00
2023-05-09T15:54:15.213Z,50.40
2023-05-09T15:56:44.853Z,49.30
2023-05-09T15:59:12.780Z,49.30
2023-05-09T16:01:40.984Z,50.00
2023-05-09T16:04:09.212Z,50.00
2023-05-09T16:06:37.874Z,50.60
2023-05-09T16:09:06.810Z,50.30
2023-05-09T16:11:34.937Z,51.40
2023-05-09T16:14:05.489Z,52.40
2023-05-09T16:16:33.991Z,50.60
2023-05-09T16:19:03.756Z,52.10
2023-05-09T16:21:33.089Z,50.70
2023-05-09T16:24:02.913Z,52.60
2023-05-09T16:26:31.233Z,52.00
2023-05-09T16:28:59.243Z,50.80
2023-05-09T16:31:28.714Z,52.30
2023-05-09T16:33:56.622Z,53.40
2023-05-09T16:36:24.628Z,51.70
2023-05-09T16:38:52.615Z,52.10
2023-05-09T16:41:20.643Z,52.80
2023-05-09T16:43:48.769Z,53.20
2023-05-09T16:46:17.072Z,52.20
2023-05-09T16:48:46.407Z,52.40
2023-05-09T16:51:14.693Z,52.60
2023-05-09T16:53:42.686Z,53.80
2023-05-09T16:56:11.520Z,53.40
2023-05-09T16:58:40.174Z,53.40
2023-05-09T17:01:08.256Z,53.30
2023-05-09T17:03:36.343Z,53.50
2023-05-09T17:06:06.082Z,54.20
2023-05-09T17:08:34.297Z,53.50
2023-05-09T17:11:02.368Z,54.00
2023-05-09T17:13:30.436Z,54.40
2023-05-09T17:15:58.386Z,54.60
2023-05-09T17:18:36.827Z,55.00
2023-05-09T17:21:06.978Z,54.20
2023-05-09T17:23:34.951Z,54.70
2023-05-09T17:26:03.766Z,55.00
2023-05-09T17:28:31.735Z,56.70
2023-05-09T17:30:59.731Z,56.00
2023-05-09T17:33:27.908Z,55.90
2023-05-09T17:35:55.946Z,56.00
2023-05-09T17:38:25.516Z,56.50
2023-05-09T17:40:53.501Z,57.20
2023-05-09T17:43:22.352Z,56.40
2023-05-09T17:45:51.058Z,56.50
2023-05-09T17:48:19.111Z,57.70
2023-05-09T17:50:47.290Z,58.20
2023-05-09T17:53:15.277Z,57.80
2023-05-09T17:55:44.917Z,59.10
2023-05-09T17:58:15.053Z,58.80
2023-05-09T18:00:43.285Z,58.60
2023-05-09T18:03:11.520Z,59.50
2023-05-09T18:05:40.125Z,59.80
2023-05-09T18:08:08.322Z,59.80
2023-05-09T18:10:36.378Z,59.40
2023-05-09T18:13:05.989Z,59.60
2023-05-09T18:15:38.053Z,59.80
2023-05-09T18:18:07.024Z,61.50
2023-05-09T18:20:35.152Z,61.60
2023-05-09T18:23:03.408Z,61.70
2023-05-09T18:25:31.372Z,61.40
2023-05-09T18:27:59.538Z,61.70
2023-05-09T18:30:28.891Z,61.90
2023-05-09T18:33:00.149Z,61.70
2023-05-09T18:35:28.268Z,62.90
2023-05-09T18:37:56.170Z,64.70
2023-05-09T18:40:24.199Z,63.10
2023-05-09T18:42:52.077Z,64.10
2023-05-09T18:45:20.087Z,64.60
2023-05-09T18:47:49.421Z,64.80
2023-05-09T18:50:18.471Z,64.30
2023-05-09T18:52:46.677Z,64.40
2023-05-09T18:55:15.428Z,65.00
2023-05-09T18:57:43.444Z,65.20
2023-05-09T19:00:12.607Z,64.80
2023-05-09T19:02:40.615Z,64.20
2023-05-09T19:05:10.874Z,64.40
2023-05-09T19:07:39.722Z,64.00
2023-05-09T19:10:09.299Z,64.90
2023-05-09T19:12:37.573Z,64.70
2023-05-09T19:15:06.404Z,64.30
2023-05-09T19:17:34.615Z,65.50
2023-05-09T19:20:04.593Z,64.80
2023-05-09T19:22:33.875Z,64.40
2023-05-09T19:25:01.857Z,64.80
2023-05-09T19:27:29.923Z,65.00
2023-05-09T19:29:59.352Z,65.30
2023-05-09T19:32:27.410Z,65.40
2023-05-09T19:34:58.753Z,65.70
2023-05-09T19:37:26.808Z,65.40
2023-05-09T19:39:56.137Z,65.60
2023-05-09T19:42:24.074Z,67.30
2023-05-09T19:44:52.611Z,67.00
2023-05-09T19:47:20.723Z,67.00
2023-05-09T19:49:48.693Z,66.70
2023-05-09T19:52:16.774Z,66.40
2023-05-09T19:54:44.719Z,66.40
2023-05-09T19:57:14.170Z,66.50
2023-05-09T19:59:42.270Z,67.50
2023-05-09T20:02:10.811Z,67.80
2023-05-09T20:04:38.991Z,67.30
2023-05-09T20:07:06.973Z,67.10
2023-05-09T20:09:35.089Z,67.70
2023-05-09T20:12:03.639Z,67.70
2023-05-09T20:14:32.989Z,67.80
2023-05-09T20:17:00.914Z,67.20
2023-05-09T20:19:29.005Z,67.90
2023-05-09T20:21:57.004Z,68.20
2023-05-09T20:24:24.957Z,68.00
2023-05-09T20:26:54.990Z,67.80
2023-05-09T20:29:23.039Z,67.80
2023-05-09T20:31:52.432Z,67.80
2023-05-09T20:34:22.758Z,68.90
2023-05-09T20:36:53.566Z,67.70
2023-05-09T20:39:22.990Z,68.60
2023-05-09T20:41:51.512Z,68.70
2023-05-09T20:44:19.851Z,69.10
2023-05-09T20:46:47.846Z,68.80
2023-05-09T20:49:17.137Z,68.80
2023-05-09T20:51:45.139Z,69.00
2023-05-09T20:54:13.001Z,68.50
2023-05-09T20:56:40.938Z,69.20
2023-05-09T20:59:08.962Z,69.50
2023-05-09T21:01:37.097Z,69.50
2023-05-09T21:04:05.892Z,70.10
2023-05-09T21:06:35.590Z,70.30
2023-05-09T21:09:03.702Z,70.60
2023-05-09T21:11:31.667Z,70.50
2023-05-09T21:13:59.619Z,70.50
2023-05-09T21:16:28.447Z,70.60
2023-05-09T21:18:57.379Z,70.70
2023-05-09T21:21:25.395Z,70.80
2023-05-09T21:23:54.739Z,71.10
2023-05-09T21:26:23.100Z,71.50
2023-05-09T21:28:51.132Z,71.40
2023-05-09T21:31:19.117Z,71.00
2023-05-09T21:33:47.113Z,71.90
2023-05-09T21:36:15.122Z,72.50
2023-05-09T21:38:42.980Z,72.60
2023-05-09T21:41:12.318Z,72.60
2023-05-09T21:43:40.657Z,72.40
2023-05-09T21:46:08.596Z,72.80
2023-05-09T21:48:36.592Z,72.80
2023-05-09T21:51:04.794Z,73.50
2023-05-09T21:53:32.670Z,73.40
2023-05-09T21:56:00.597Z,73.50
2023-05-09T21:58:29.936Z,74.20
2023-05-09T22:00:57.900Z,73.50
2023-05-09T22:03:26.097Z,73.80
2023-05-09T22:05:54.032Z,74.00
2023-05-09T22:08:21.918Z,74.60
2023-05-09T22:10:49.837Z,75.00
2023-05-09T22:13:17.753Z,75.30
2023-05-09T22:15:47.123Z,75.60
2023-05-09T22:18:15.448Z,76.30
2023-05-09T22:20:43.294Z,76.30
2023-05-09T22:23:12.477Z,76.50
2023-05-09T22:25:40.352Z,76.60
2023-05-09T22:28:09.021Z,76.90
2023-05-09T22:30:37.186Z,77.50
2023-05-09T22:33:06.740Z,77.40
2023-05-09T22:35:34.630Z,77.80
2023-05-09T22:38:03.245Z,77.40
2023-05-09T22:40:31.182Z,78.00
2023-05-09T22:42:59.101Z,79.10
2023-05-09T22:45:27.117Z,79.00
2023-05-09T22:47:55.144Z,79.00
2023-05-09T22:50:24.465Z,79.20
2023-05-09T22:52:52.508Z,79.10
2023-05-09T22:55:20.494Z,80.20
2023-05-09T22:57:48.358Z,81.10
2023-05-09T23:00:17.142Z,81.10
2023-05-09T23:02:45.571Z,81.60
2023-05-09T23:05:13.491Z,82.00
2023-05-09T23:07:42.799Z,82.00
2023-05-09T23:10:11.348Z,82.00
2023-05-09T23:12:39.269Z,82.40
2023-05-09T23:15:08.421Z,83.00
2023-05-09T23:17:36.425Z,83.00
2023-05-09T23:20:04.962Z,83.60
2023-05-09T23:22:32.856Z,84.80
2023-05-09T23:25:02.736Z,84.30
2023-05-09T23:27:31.280Z,84.90
2023-05-09T23:29:59.188Z,85.30
2023-05-09T23:32:27.150Z,86.10
2023-05-09T23:34:55.056Z,86.00
2023-05-09T23:37:22.986Z,86.00
2023-05-09T23:39:51.642Z,86.70
2023-05-09T23:42:20.983Z,87.20
2023-05-09T23:44:48.861Z,87.20
2023-05-09T23:47:16.791Z,87.20
2023-05-09T23:49:44.751Z,86.50
2023-05-09T23:52:12.681Z,87.60
2023-05-09T23:54:40.693Z,87.10
2023-05-09T23:57:08.675Z,88.00
2023-05-09T23:59:37.906Z,88.30
